Time;durP1;ratioP1;P1;durP2;ratioP2;P2;SDS_P1;SDS_P2;PMS_P1;PMS_P2;Temp;Humidity;BMP_temperature;BMP_pressure;BME280_temperature;BME280_humidity;BME280_pressure;Samples;Min_cycle;Max_cycle;Signal;HPM_P1;HPM_P2
2021/04/03 00:01:24;;;;;;;13.20;5.53;;;5.90;99.90;;;;;;5092151;28;20337;-64
2021/04/03 00:03:51;;;;;;;13.77;5.37;;;5.90;99.90;;;;;;5092171;28;20201;-66
2021/04/03 00:06:18;;;;;;;11.80;5.00;;;5.80;99.90;;;;;;5092050;28;20555;-66
2021/04/03 00:08:45;;;;;;;11.27;5.20;;;5.80;99.90;;;;;;5091370;28;20202;-68
2021/04/03 00:11:13;;;;;;;12.17;5.77;;;5.70;99.90;;;;;;5091857;28;20664;-64
2021/04/03 00:13:43;;;;;;;12.13;5.07;;;5.70;99.90;;;;;;5093523;28;20314;-64
2021/04/03 00:16:10;;;;;;;11.73;5.50;;;5.70;99.90;;;;;;5095649;28;20222;-63
2021/04/03 00:18:37;;;;;;;13.47;5.80;;;5.70;99.90;;;;;;5095417;28;20612;-63
2021/04/03 00:21:05;;;;;;;15.60;6.33;;;5.70;99.90;;;;;;5095685;28;20225;-64
2021/04/03 00:23:32;;;;;;;10.73;5.97;;;5.80;99.90;;;;;;5095237;28;20224;-69
2021/04/03 00:26:00;;;;;;;10.50;6.27;;;5.70;99.90;;;;;;5095245;28;20245;-67
2021/04/03 00:28:27;;;;;;;9.47;5.63;;;5.70;99.90;;;;;;5095051;28;20261;-69
2021/04/03 00:30:54;;;;;;;13.83;5.80;;;5.80;99.90;;;;;;5095349;28;20744;-67
2021/04/03 00:33:21;;;;;;;10.27;5.80;;;5.80;99.90;;;;;;5094998;28;20645;-60
2021/04/03 00:35:48;;;;;;;14.20;6.27;;;5.70;99.90;;;;;;5095032;28;20754;-60
2021/04/03 00:38:16;;;;;;;12.07;5.20;;;5.70;99.90;;;;;;5095166;28;20229;-60
2021/04/03 00:40:44;;;;;;;13.00;5.93;;;5.70;99.90;;;;;;5095230;28;20308;-61
2021/04/03 00:43:13;;;;;;;10.53;6.17;;;5.80;99.90;;;;;;5094888;28;20206;-60
2021/04/03 00:45:40;;;;;;;13.23;5.53;;;5.80;99.90;;;;;;5090152;28;20198;-60
2021/04/03 00:48:08;;;;;;;9.67;5.50;;;5.70;99.90;;;;;;5083443;28;20206;-65
2021/04/03 00:50:37;;;;;;;10.93;5.87;;;5.70;99.90;;;;;;5074281;28;20289;-63
2021/04/03 00:53:05;;;;;;;14.10;5.47;;;5.80;99.90;;;;;;5074013;28;20215;-66
2021/04/03 00:55:33;;;;;;;15.03;5.37;;;5.70;99.90;;;;;;5074974;28;20206;-62
2021/04/03 00:58:00;;;;;;;10.57;5.43;;;5.80;99.90;;;;;;5074730;28;20301;-61
2021/04/03 01:00:27;;;;;;;13.10;5.47;;;5.70;99.90;;;;;;5074100;28;20553;-65
2021/04/03 01:02:54;;;;;;;16.13;6.00;;;5.70;99.90;;;;;;5074757;28;20349;-66
2021/04/03 01:05:23;;;;;;;15.03;5.83;;;5.70;99.90;;;;;;5074906;28;20289;-65
2021/04/03 01:07:50;;;;;;;12.20;6.00;;;5.70;99.90;;;;;;5074792;28;20273;-63
2021/04/03 01:10:19;;;;;;;16.03;5.40;;;5.70;99.90;;;;;;5074902;28;20202;-65
2021/04/03 01:13:12;;;;;;;16.50;6.07;;;5.70;99.90;;;;;;5084489;28;20650;-63
2021/04/03 01:15:45;;;;;;;15.47;5.70;;;5.60;99.90;;;;;;5087412;28;20297;-63
2021/04/03 01:18:19;;;;;;;13.83;5.77;;;5.60;99.90;;;;;;5094603;28;20184;-66
2021/04/03 01:21:01;;;;;;;15.07;6.30;;;5.40;99.90;;;;;;5094547;28;20242;-66
2021/04/03 01:23:58;;;;;;;15.83;6.20;;;5.40;99.90;;;;;;5094125;28;20187;-66
2021/04/03 01:26:58;;;;;;;15.20;6.13;;;5.30;99.90;;;;;;5093823;28;20225;-63
2021/04/03 01:29:46;;;;;;;14.47;6.33;;;5.20;99.90;;;;;;5094274;28;20239;-60
2021/04/03 01:32:16;;;;;;;12.33;5.87;;;5.30;99.90;;;;;;5094158;28;20844;-61
2021/04/03 01:34:45;;;;;;;16.57;6.23;;;5.40;99.90;;;;;;5093724;28;20659;-61
2021/04/03 01:37:20;;;;;;;13.90;6.50;;;5.30;99.90;;;;;;5093663;28;20192;-61
2021/04/03 01:39:50;;;;;;;16.23;6.53;;;5.30;99.90;;;;;;5094173;28;20289;-66
2021/04/03 01:42:19;;;;;;;13.97;6.37;;;5.30;99.90;;;;;;5093430;28;20230;-67
2021/04/03 01:44:50;;;;;;;14.43;5.97;;;5.50;99.90;;;;;;5093280;28;20299;-63
2021/04/03 01:47:21;;;;;;;11.83;6.73;;;5.40;99.90;;;;;;5094166;28;20243;-64
2021/04/03 01:49:50;;;;;;;16.03;6.47;;;5.50;99.90;;;;;;5089963;28;20305;-62
2021/04/03 01:52:21;;;;;;;16.30;6.10;;;5.40;99.90;;;;;;5082381;28;20300;-63
2021/04/03 01:54:51;;;;;;;14.87;6.43;;;5.50;99.90;;;;;;5073350;28;20187;-67
2021/04/03 01:57:18;;;;;;;15.97;6.03;;;5.60;99.90;;;;;;5073320;28;20208;-66
2021/04/03 01:59:48;;;;;;;16.33;6.10;;;5.60;99.90;;;;;;5073467;28;20205;-66
2021/04/03 02:02:17;;;;;;;19.00;5.87;;;5.70;99.90;;;;;;5073649;28;20253;-66
2021/04/03 02:04:45;;;;;;;15.33;5.60;;;5.70;99.90;;;;;;5073184;28;20741;-67
2021/04/03 02:07:15;;;;;;;13.37;5.77;;;5.70;99.90;;;;;;5073291;28;20293;-60
2021/04/03 02:09:43;;;;;;;19.93;6.67;;;5.90;99.90;;;;;;5073769;28;20255;-64
2021/04/03 02:12:11;;;;;;;15.63;5.97;;;5.90;99.90;;;;;;5079004;28;20620;-64
2021/04/03 02:14:39;;;;;;;14.57;5.60;;;5.90;99.90;;;;;;5093574;28;20201;-66
2021/04/03 02:17:07;;;;;;;12.83;5.70;;;5.90;99.90;;;;;;5093430;28;20222;-66
2021/04/03 02:19:35;;;;;;;15.50;5.43;;;5.90;99.90;;;;;;5093747;28;20624;-64
2021/04/03 02:22:03;;;;;;;11.97;5.57;;;5.90;99.90;;;;;;5093368;28;20597;-65
2021/04/03 02:24:32;;;;;;;18.57;5.57;;;6.00;99.90;;;;;;5093152;28;20206;-62
2021/04/03 02:26:59;;;;;;;12.20;5.17;;;5.90;99.90;;;;;;5093140;28;20325;-64
2021/04/03 02:29:26;;;;;;;13.07;5.03;;;6.00;99.90;;;;;;5093085;28;20216;-65
2021/04/03 02:31:53;;;;;;;16.13;6.13;;;6.00;99.90;;;;;;5093405;28;20200;-67
2021/04/03 02:34:21;;;;;;;10.73;4.63;;;5.90;99.90;;;;;;5093106;28;20324;-66
2021/04/03 02:36:48;;;;;;;15.57;5.60;;;6.00;99.90;;;;;;5092286;28;20633;-67
2021/04/03 02:39:15;;;;;;;16.27;5.20;;;5.90;99.90;;;;;;5093050;28;20650;-63
2021/04/03 02:41:44;;;;;;;13.87;5.40;;;6.00;99.90;;;;;;5093062;28;20669;-64
2021/04/03 02:44:17;;;;;;;16.53;5.80;;;6.00;99.90;;;;;;5093069;28;20203;-62
2021/04/03 02:46:48;;;;;;;13.93;5.57;;;5.90;99.90;;;;;;5092895;28;20735;-64
2021/04/03 02:49:19;;;;;;;10.30;5.03;;;5.90;99.90;;;;;;5093236;28;20237;-65
2021/04/03 02:51:51;;;;;;;11.50;4.63;;;6.00;99.90;;;;;;5092873;28;20592;-65
2021/04/03 02:54:21;;;;;;;15.93;5.13;;;6.00;99.90;;;;;;5093081;28;20211;-65
2021/04/03 02:56:49;;;;;;;10.50;4.83;;;6.00;99.90;;;;;;5092957;28;20197;-65
2021/04/03 02:59:19;;;;;;;10.20;4.90;;;5.90;99.90;;;;;;5101975;28;20240;-70
2021/04/03 03:01:49;;;;;;;10.93;5.30;;;5.90;99.90;;;;;;5105065;28;20236;-60
2021/04/03 03:04:17;;;;;;;11.70;4.87;;;5.80;99.90;;;;;;5095239;28;20213;-63
2021/04/03 03:06:45;;;;;;;17.70;6.23;;;5.80;99.90;;;;;;5092871;28;20607;-62
2021/04/03 03:09:14;;;;;;;13.00;5.10;;;5.70;99.90;;;;;;5092954;28;20283;-66
2021/04/03 03:11:44;;;;;;;14.47;5.03;;;5.70;99.90;;;;;;5086212;28;20252;-65
2021/04/03 03:14:13;;;;;;;16.37;5.67;;;5.70;99.90;;;;;;5092821;28;20288;-65
2021/04/03 03:16:42;;;;;;;9.83;4.83;;;5.70;99.90;;;;;;5092945;28;20205;-64
2021/04/03 03:19:12;;;;;;;17.53;5.17;;;5.70;99.90;;;;;;5078775;28;20209;-65
2021/04/03 03:21:40;;;;;;;13.20;5.17;;;5.60;99.90;;;;;;5085208;28;20217;-64
2021/04/03 03:24:08;;;;;;;13.83;4.67;;;5.70;99.90;;;;;;5081324;28;20619;-66
2021/04/03 03:26:36;;;;;;;12.83;4.77;;;5.70;99.90;;;;;;5072089;28;20314;-64
2021/04/03 03:29:04;;;;;;;14.10;6.27;;;5.60;99.90;;;;;;5079281;28;20307;-65
2021/04/03 03:31:31;;;;;;;15.47;5.10;;;5.50;99.90;;;;;;5076107;28;20287;-64
2021/04/03 03:33:58;;;;;;;14.30;6.27;;;5.40;99.90;;;;;;5092976;28;20198;-64
2021/04/03 03:36:27;;;;;;;12.93;5.33;;;5.40;99.90;;;;;;5092538;28;20293;-64
2021/04/03 03:38:54;;;;;;;16.30;5.17;;;5.40;99.90;;;;;;5092794;28;20301;-64
2021/04/03 03:41:23;;;;;;;14.23;5.47;;;5.40;99.90;;;;;;5092596;28;20313;-64
2021/04/03 03:43:51;;;;;;;14.70;5.10;;;5.30;99.90;;;;;;5092383;28;20291;-64
2021/04/03 03:46:19;;;;;;;19.83;5.50;;;5.30;99.90;;;;;;5092321;28;20297;-65
2021/04/03 03:48:46;;;;;;;15.17;5.20;;;5.30;99.90;;;;;;5096529;28;20229;-64
2021/04/03 03:51:14;;;;;;;14.13;5.50;;;5.30;99.90;;;;;;5096450;28;20287;-65
2021/04/03 03:53:41;;;;;;;15.57;6.10;;;5.30;99.90;;;;;;5096841;28;20196;-65
2021/04/03 03:56:08;;;;;;;15.23;6.00;;;5.30;99.90;;;;;;5096508;28;20204;-65
2021/04/03 03:58:35;;;;;;;19.30;5.57;;;5.40;99.90;;;;;;5096385;28;20204;-65
2021/04/03 04:01:02;;;;;;;18.10;5.37;;;5.30;99.90;;;;;;5096273;28;20203;-64
2021/04/03 04:03:31;;;;;;;14.47;6.20;;;5.30;99.90;;;;;;5096530;28;20207;-65
2021/04/03 04:05:58;;;;;;;13.37;5.43;;;5.30;99.90;;;;;;5093171;28;20203;-63
2021/04/03 04:08:25;;;;;;;15.70;6.00;;;5.20;99.90;;;;;;5096327;28;20581;-64
2021/04/03 04:10:52;;;;;;;16.10;5.90;;;5.10;99.90;;;;;;5096098;28;20203;-64
2021/04/03 04:13:19;;;;;;;17.37;5.03;;;5.10;99.90;;;;;;5096166;28;20203;-65
2021/04/03 04:15:46;;;;;;;14.53;5.33;;;5.20;99.90;;;;;;5096084;28;20251;-63
2021/04/03 04:18:14;;;;;;;15.13;4.77;;;5.20;99.90;;;;;;5096249;28;20283;-64
2021/04/03 04:20:41;;;;;;;14.17;4.83;;;5.30;99.90;;;;;;5095435;28;20289;-65
2021/04/03 04:23:08;;;;;;;17.27;5.50;;;5.30;99.90;;;;;;5096015;28;20311;-64
2021/04/03 04:25:35;;;;;;;12.23;4.20;;;5.30;99.90;;;;;;5095633;28;20295;-64
2021/04/03 04:28:02;;;;;;;15.30;5.37;;;5.20;99.90;;;;;;5076169;28;20198;-64
2021/04/03 04:30:29;;;;;;;14.60;4.57;;;5.20;99.90;;;;;;5075513;28;20296;-64
2021/04/03 04:32:56;;;;;;;12.43;4.57;;;5.10;99.90;;;;;;5075558;28;20233;-63
2021/04/03 04:35:23;;;;;;;12.93;5.17;;;5.10;99.90;;;;;;5074971;28;20199;-65
2021/04/03 04:37:50;;;;;;;11.77;4.97;;;5.10;99.90;;;;;;5075641;28;20308;-65
2021/04/03 04:40:17;;;;;;;18.63;5.27;;;5.00;99.90;;;;;;5075629;28;20666;-64
2021/04/03 04:42:44;;;;;;;15.87;4.97;;;5.00;99.90;;;;;;5075240;28;20223;-64
2021/04/03 04:45:12;;;;;;;12.10;4.73;;;5.10;99.90;;;;;;5075237;28;20227;-65
2021/04/03 04:47:39;;;;;;;16.53;5.33;;;5.00;99.90;;;;;;5075335;28;20210;-65
2021/04/03 04:50:08;;;;;;;12.77;5.00;;;5.00;99.90;;;;;;5074728;28;20296;-65
2021/04/03 04:52:36;;;;;;;12.87;5.03;;;5.00;99.90;;;;;;5075319;28;20301;-63
2021/04/03 04:55:04;;;;;;;14.13;4.77;;;5.00;99.90;;;;;;5074956;28;20205;-65
2021/04/03 04:57:31;;;;;;;14.50;5.23;;;5.00;99.90;;;;;;5074811;28;20209;-65
2021/04/03 04:59:58;;;;;;;18.57;5.53;;;5.00;99.90;;;;;;5074002;28;20252;-64
2021/04/03 05:02:25;;;;;;;14.83;5.23;;;5.10;99.90;;;;;;5074977;28;20222;-65
2021/04/03 05:04:52;;;;;;;13.13;4.93;;;5.00;99.90;;;;;;5074549;28;20672;-64
2021/04/03 05:07:19;;;;;;;15.67;5.70;;;4.90;99.90;;;;;;5075065;28;20233;-64
2021/04/03 05:09:46;;;;;;;14.70;5.50;;;4.80;99.90;;;;;;5074881;28;20196;-64
2021/04/03 05:12:13;;;;;;;14.77;4.73;;;4.90;99.90;;;;;;5074721;28;20292;-64
2021/04/03 05:14:40;;;;;;;15.80;5.03;;;4.80;99.90;;;;;;5074926;28;20296;-65
2021/04/03 05:17:07;;;;;;;15.80;4.77;;;4.80;99.90;;;;;;5074870;28;20286;-64
2021/04/03 05:19:34;;;;;;;14.50;5.30;;;4.70;99.90;;;;;;5074627;28;20288;-65
2021/04/03 05:22:01;;;;;;;15.17;5.53;;;4.80;99.90;;;;;;5074529;28;20311;-63
2021/04/03 05:24:28;;;;;;;17.47;5.30;;;4.70;99.90;;;;;;5074701;28;20235;-64
2021/04/03 05:26:56;;;;;;;16.80;5.23;;;4.80;99.90;;;;;;5074443;28;20236;-66
2021/04/03 05:29:22;;;;;;;15.93;5.27;;;4.90;99.90;;;;;;5074490;28;20204;-65
2021/04/03 05:31:49;;;;;;;15.23;5.50;;;4.90;99.90;;;;;;5074307;28;20193;-64
2021/04/03 05:34:16;;;;;;;15.30;5.10;;;4.80;99.90;;;;;;5074236;28;20290;-64
2021/04/03 05:36:46;;;;;;;15.03;5.87;;;4.90;99.90;;;;;;5074575;28;20223;-64
2021/04/03 05:39:14;;;;;;;16.83;5.70;;;4.90;99.90;;;;;;5074136;28;20679;-65
2021/04/03 05:41:40;;;;;;;14.67;5.33;;;5.00;99.90;;;;;;5074058;28;20313;-65
2021/04/03 05:44:10;;;;;;;14.87;5.33;;;5.00;99.90;;;;;;5074100;28;20197;-64
2021/04/03 05:46:39;;;;;;;15.97;5.37;;;5.00;99.90;;;;;;5073862;28;20616;-64
2021/04/03 05:49:06;;;;;;;12.97;5.47;;;5.00;99.90;;;;;;5073755;28;20200;-64
2021/04/03 05:51:34;;;;;;;15.13;5.30;;;5.10;99.90;;;;;;5074049;28;20294;-64
2021/04/03 05:54:01;;;;;;;14.23;5.07;;;5.10;99.90;;;;;;5074030;28;20197;-63
2021/04/03 05:56:29;;;;;;;13.63;4.80;;;5.20;99.90;;;;;;5073970;28;20296;-64
2021/04/03 05:58:56;;;;;;;13.17;5.27;;;5.20;99.90;;;;;;5073589;28;20316;-62
2021/04/03 06:01:24;;;;;;;12.83;5.53;;;5.20;99.90;;;;;;5073803;28;20294;-64
2021/04/03 06:03:51;;;;;;;16.20;5.00;;;5.20;99.90;;;;;;5073455;28;20207;-64
2021/04/03 06:06:18;;;;;;;13.57;4.77;;;5.30;99.90;;;;;;5073402;28;20295;-64
2021/04/03 06:08:45;;;;;;;14.03;4.93;;;5.30;99.90;;;;;;5073600;28;20206;-64
2021/04/03 06:11:17;;;;;;;15.37;4.97;;;5.30;99.90;;;;;;5073218;28;20203;-66
2021/04/03 06:14:02;;;;;;;12.30;5.03;;;5.40;99.90;;;;;;5073279;28;20194;-65
2021/04/03 06:16:31;;;;;;;10.93;5.13;;;5.50;99.90;;;;;;5073407;28;20192;-64
2021/04/03 06:19:12;;;;;;;14.87;4.60;;;5.30;99.90;;;;;;5073122;28;20283;-63
2021/04/03 06:21:41;;;;;;;15.60;4.93;;;5.30;99.90;;;;;;5073001;28;20217;-63
2021/04/03 06:24:22;;;;;;;17.37;5.10;;;5.30;99.90;;;;;;5073077;28;20232;-64
2021/04/03 06:27:00;;;;;;;11.60;5.07;;;5.50;99.90;;;;;;5072875;28;20230;-63
2021/04/03 06:29:31;;;;;;;13.13;4.70;;;5.60;99.90;;;;;;5073291;28;20390;-64
2021/04/03 06:32:00;;;;;;;10.43;4.67;;;5.60;99.90;;;;;;5073327;28;20278;-64
2021/04/03 06:34:32;;;;;;;13.40;5.03;;;5.50;99.90;;;;;;5072861;28;20220;-63
2021/04/03 06:37:00;;;;;;;14.70;5.60;;;5.40;99.90;;;;;;5073100;28;20192;-64
2021/04/03 06:39:27;;;;;;;15.97;5.20;;;5.50;99.90;;;;;;5072761;28;20292;-63
2021/04/03 06:41:55;;;;;;;11.73;5.33;;;5.40;99.90;;;;;;5072860;28;20485;-64
2021/04/03 06:44:22;;;;;;;12.23;5.37;;;5.50;99.90;;;;;;5072819;28;20236;-63
2021/04/03 06:46:50;;;;;;;12.90;5.30;;;5.50;99.90;;;;;;5072667;28;20610;-63
2021/04/03 06:49:18;;;;;;;16.60;5.37;;;5.50;99.90;;;;;;5072685;28;20205;-63
2021/04/03 06:51:45;;;;;;;13.43;6.10;;;5.70;99.90;;;;;;5072540;28;20598;-64
2021/04/03 06:54:13;;;;;;;12.33;5.53;;;5.60;99.90;;;;;;5072651;28;20652;-63
2021/04/03 06:56:40;;;;;;;14.00;5.80;;;5.60;99.90;;;;;;5072954;28;20197;-64
2021/04/03 06:59:08;;;;;;;11.27;5.63;;;5.60;99.90;;;;;;5074041;28;20200;-64
2021/04/03 07:01:54;;;;;;;14.50;6.10;;;5.80;99.90;;;;;;5073646;28;20209;-64
2021/04/03 07:04:27;;;;;;;14.20;5.50;;;6.00;99.90;;;;;;5072306;28;20277;-64
2021/04/03 07:06:54;;;;;;;12.17;5.90;;;6.00;99.90;;;;;;5072870;28;20193;-63
2021/04/03 07:09:22;;;;;;;15.77;5.90;;;5.90;99.90;;;;;;5072437;28;20654;-63
2021/04/03 07:11:50;;;;;;;13.40;5.47;;;5.80;99.90;;;;;;5072671;28;20293;-63
2021/04/03 07:14:18;;;;;;;13.43;5.37;;;5.80;99.90;;;;;;5072865;28;20206;-64
2021/04/03 07:16:47;;;;;;;12.57;5.70;;;5.90;99.90;;;;;;5072515;28;20209;-64
2021/04/03 07:19:17;;;;;;;14.43;5.43;;;6.00;99.90;;;;;;5072679;28;20201;-64
2021/04/03 07:21:45;;;;;;;14.97;5.80;;;6.10;99.90;;;;;;5072773;28;20230;-64
2021/04/03 07:24:14;;;;;;;11.80;5.23;;;6.30;99.90;;;;;;5072709;28;20273;-62
2021/04/03 07:26:43;;;;;;;9.93;5.37;;;6.30;99.90;;;;;;5072510;28;20424;-64
2021/04/03 07:29:43;;;;;;;19.00;5.63;;;6.10;99.90;;;;;;5072537;28;20198;-63
2021/04/03 07:32:30;;;;;;;16.07;5.40;;;6.40;99.90;;;;;;5072749;28;20211;-64
2021/04/03 07:34:57;;;;;;;13.60;5.60;;;6.50;99.90;;;;;;5072652;28;20636;-64
2021/04/03 07:37:35;;;;;;;17.40;6.03;;;6.40;99.90;;;;;;5072700;28;20735;-64
2021/04/03 07:40:04;;;;;;;13.07;5.50;;;6.30;99.90;;;;;;5072254;28;20678;-65
2021/04/03 07:42:36;;;;;;;12.30;5.57;;;6.40;99.90;;;;;;5072437;28;20223;-64
2021/04/03 07:45:05;;;;;;;12.90;5.30;;;6.50;99.90;;;;;;5072478;28;20194;-64
2021/04/03 07:47:46;;;;;;;12.57;5.30;;;6.40;99.90;;;;;;5072338;28;20740;-63
2021/04/03 07:50:50;;;;;;;12.57;4.87;;;6.30;99.90;;;;;;5072502;28;20187;-64
2021/04/03 07:53:40;;;;;;;15.10;6.17;;;6.40;99.90;;;;;;5072558;28;20273;-64
2021/04/03 07:56:08;;;;;;;13.23;5.63;;;6.20;99.90;;;;;;5072329;28;20238;-63
2021/04/03 07:58:36;;;;;;;11.43;5.43;;;6.20;99.90;;;;;;5072078;28;20220;-63
2021/04/03 08:01:20;;;;;;;13.83;5.87;;;6.20;99.90;;;;;;5072448;28;20231;-64
2021/04/03 08:03:54;;;;;;;12.40;5.90;;;6.30;99.90;;;;;;5072065;28;20218;-64
2021/04/03 08:06:29;;;;;;;12.67;5.80;;;6.70;99.90;;;;;;5072344;28;20194;-63
2021/04/03 08:08:58;;;;;;;11.43;5.03;;;7.00;99.90;;;;;;5072281;28;20234;-65
2021/04/03 08:11:25;;;;;;;12.93;5.13;;;7.10;99.90;;;;;;5085483;28;20714;-63
2021/04/03 08:13:54;;;;;;;11.40;6.10;;;7.30;99.90;;;;;;5091912;28;20203;-63
2021/04/03 08:16:22;;;;;;;9.07;4.80;;;7.30;99.90;;;;;;5092312;28;20306;-63
2021/04/03 08:18:50;;;;;;;9.30;5.47;;;7.20;99.90;;;;;;5091962;28;20332;-64
2021/04/03 08:21:18;;;;;;;9.90;5.13;;;7.20;99.90;;;;;;5071895;28;20647;-64
2021/04/03 08:23:48;;;;;;;12.13;5.33;;;7.50;99.90;;;;;;5072400;28;20311;-64
2021/04/03 08:26:17;;;;;;;10.70;5.07;;;7.70;99.90;;;;;;5071946;28;20228;-64
2021/04/03 08:28:45;;;;;;;10.93;5.17;;;7.60;99.90;;;;;;5072691;28;20683;-64
2021/04/03 08:31:13;;;;;;;12.47;6.13;;;7.60;99.90;;;;;;5072735;28;20229;-64
2021/04/03 08:33:40;;;;;;;12.00;5.40;;;7.70;99.90;;;;;;5073004;28;20297;-64
2021/04/03 08:36:12;;;;;;;9.10;5.37;;;7.80;99.90;;;;;;5076158;28;20208;-63
2021/04/03 08:38:40;;;;;;;12.23;5.63;;;7.80;99.90;;;;;;5076534;28;20200;-64
2021/04/03 08:41:07;;;;;;;10.87;5.67;;;7.80;99.90;;;;;;5075980;28;20255;-64
2021/04/03 08:43:35;;;;;;;9.97;5.73;;;7.80;99.90;;;;;;5077207;28;20309;-64
2021/04/03 08:46:05;;;;;;;9.80;5.00;;;7.90;99.90;;;;;;5084071;28;20206;-64
2021/04/03 08:48:38;;;;;;;8.73;5.00;;;7.90;99.90;;;;;;5087067;28;20555;-63
2021/04/03 08:51:06;;;;;;;11.67;5.23;;;8.10;99.90;;;;;;5089210;28;20231;-64
2021/04/03 08:53:38;;;;;;;7.97;4.60;;;8.20;99.90;;;;;;5081819;28;20212;-63
2021/04/03 08:56:06;;;;;;;10.77;4.73;;;8.30;99.90;;;;;;5075292;28;20299;-64
2021/04/03 08:58:35;;;;;;;8.17;4.10;;;8.30;99.90;;;;;;5075405;28;20200;-65
2021/04/03 09:01:03;;;;;;;9.60;4.40;;;8.20;99.90;;;;;;5079364;28;20203;-64
2021/04/03 09:03:33;;;;;;;8.93;4.57;;;8.20;99.90;;;;;;5087086;28;20334;-63
2021/04/03 09:06:01;;;;;;;6.30;3.60;;;8.20;99.90;;;;;;5092154;28;20196;-63
2021/04/03 09:08:28;;;;;;;6.47;3.13;;;8.30;99.90;;;;;;5094397;28;20286;-64
2021/04/03 09:10:56;;;;;;;6.67;3.40;;;8.30;99.90;;;;;;5090904;28;20192;-62
2021/04/03 09:13:30;;;;;;;8.33;4.80;;;8.20;99.90;;;;;;5086780;28;20680;-62
2021/04/03 09:16:07;;;;;;;8.67;4.13;;;8.20;99.90;;;;;;5086160;28;20210;-63
2021/04/03 09:18:34;;;;;;;11.43;4.40;;;8.30;99.90;;;;;;5092524;28;20191;-57
2021/04/03 09:21:01;;;;;;;6.20;3.23;;;8.50;99.90;;;;;;5093464;28;20298;-58
2021/04/03 09:23:28;;;;;;;6.30;3.30;;;8.50;99.90;;;;;;5082962;28;20211;-59
2021/04/03 09:26:02;;;;;;;6.23;3.10;;;8.40;99.90;;;;;;5089078;28;20232;-57
2021/04/03 09:28:37;;;;;;;6.97;3.67;;;8.60;99.90;;;;;;5089206;28;20208;-55
2021/04/03 09:31:05;;;;;;;8.67;2.93;;;8.70;99.90;;;;;;5091792;28;20184;-58
2021/04/03 09:33:32;;;;;;;7.93;2.70;;;8.90;99.90;;;;;;5092556;28;20196;-59
2021/04/03 09:36:11;;;;;;;5.60;2.57;;;9.00;99.90;;;;;;5093376;28;20587;-58
2021/04/03 09:38:38;;;;;;;7.87;2.50;;;9.10;99.90;;;;;;5089867;28;20196;-58
2021/04/03 09:41:21;;;;;;;4.10;2.40;;;9.20;99.90;;;;;;5087174;28;20440;-58
2021/04/03 09:43:48;;;;;;;5.10;2.20;;;9.20;99.90;;;;;;5091028;28;20614;-60
2021/04/03 09:46:16;;;;;;;5.37;2.60;;;9.30;99.90;;;;;;5092866;28;20279;-58
2021/04/03 09:48:43;;;;;;;7.53;2.40;;;9.50;99.90;;;;;;5093445;28;20192;-57
2021/04/03 09:51:10;;;;;;;4.97;2.53;;;9.60;99.90;;;;;;5093159;28;20258;-57
2021/04/03 09:53:38;;;;;;;5.23;2.70;;;9.70;99.90;;;;;;5090192;28;20610;-58
2021/04/03 09:56:06;;;;;;;4.20;2.50;;;10.00;99.90;;;;;;5092764;28;20850;-59
2021/04/03 09:58:33;;;;;;;2.87;1.60;;;10.10;99.90;;;;;;5081208;28;20204;-56
2021/04/03 10:01:00;;;;;;;4.37;1.80;;;10.20;99.90;;;;;;5085253;28;20204;-58
2021/04/03 10:03:28;;;;;;;5.67;1.47;;;10.10;99.90;;;;;;5074132;28;20248;-56
2021/04/03 10:05:56;;;;;;;3.83;1.70;;;10.00;99.90;;;;;;5074362;28;20205;-57
2021/04/03 10:08:23;;;;;;;3.17;1.20;;;10.00;99.90;;;;;;5077923;28;20614;-57
2021/04/03 10:10:50;;;;;;;3.23;1.40;;;10.20;99.90;;;;;;5088636;28;20595;-56
2021/04/03 10:13:16;;;;;;;3.10;1.37;;;10.30;99.90;;;;;;5093815;28;20199;-57
2021/04/03 10:15:43;;;;;;;1.93;1.30;;;10.30;99.90;;;;;;5093629;28;20567;-63
2021/04/03 10:18:13;;;;;;;2.10;1.10;;;10.20;99.90;;;;;;5086982;28;20224;-61
2021/04/03 10:20:43;;;;;;;1.60;0.87;;;10.20;99.90;;;;;;5075361;28;20220;-63
2021/04/03 10:23:09;;;;;;;2.07;0.80;;;10.20;99.90;;;;;;5072872;28;20312;-63
2021/04/03 10:25:37;;;;;;;0.90;0.80;;;10.20;99.90;;;;;;5083771;28;20208;-62
2021/04/03 10:28:04;;;;;;;3.77;1.20;;;10.20;99.90;;;;;;5073207;28;20205;-62
2021/04/03 10:30:31;;;;;;;2.73;0.70;;;10.20;99.90;;;;;;5076345;28;20204;-63
2021/04/03 10:32:58;;;;;;;2.37;1.20;;;10.20;99.90;;;;;;5082961;28;20282;-64
2021/04/03 10:35:25;;;;;;;2.50;1.00;;;10.20;99.90;;;;;;5085758;28;20204;-62
2021/04/03 10:37:52;;;;;;;1.37;0.90;;;10.10;99.90;;;;;;5073313;28;20211;-63
2021/04/03 10:40:19;;;;;;;2.47;0.83;;;10.10;99.90;;;;;;5075436;28;20621;-64
2021/04/03 10:42:46;;;;;;;1.00;0.80;;;10.10;99.90;;;;;;5087039;28;20231;-63
2021/04/03 10:45:14;;;;;;;1.10;0.80;;;9.90;99.90;;;;;;5084917;28;20235;-63
2021/04/03 10:47:40;;;;;;;1.80;1.10;;;10.00;99.90;;;;;;5092101;28;20711;-66
2021/04/03 10:50:08;;;;;;;2.77;0.90;;;9.80;99.90;;;;;;5092070;28;20285;-64
2021/04/03 10:52:35;;;;;;;2.37;0.90;;;9.80;99.90;;;;;;5093610;28;20200;-65
2021/04/03 10:55:04;;;;;;;2.30;0.83;;;9.70;99.90;;;;;;5088063;28;20204;-65
2021/04/03 10:57:31;;;;;;;2.30;1.10;;;9.70;99.90;;;;;;5077904;28;20287;-66
2021/04/03 10:59:57;;;;;;;4.07;1.17;;;10.00;99.90;;;;;;5073379;28;20288;-68
2021/04/03 11:02:24;;;;;;;1.30;1.20;;;10.20;99.90;;;;;;5072514;28;20231;-67
2021/04/03 11:04:51;;;;;;;2.63;1.10;;;10.40;99.90;;;;;;5072413;28;20757;-67
2021/04/03 11:07:18;;;;;;;1.00;0.80;;;10.30;99.90;;;;;;5072719;28;20794;-66
2021/04/03 11:09:45;;;;;;;1.90;1.00;;;10.10;99.90;;;;;;5072238;28;20224;-68
2021/04/03 11:12:13;;;;;;;1.80;1.00;;;9.90;99.90;;;;;;5072508;28;20283;-64
2021/04/03 11:14:41;;;;;;;1.40;0.90;;;9.90;99.90;;;;;;5081588;28;20637;-67
2021/04/03 11:17:08;;;;;;;1.27;1.03;;;10.10;99.90;;;;;;5082902;28;20557;-66
2021/04/03 11:19:35;;;;;;;2.67;1.33;;;10.20;99.90;;;;;;5093028;28;20278;-66
2021/04/03 11:22:03;;;;;;;1.80;1.27;;;10.30;99.90;;;;;;5092521;28;20204;-66
2021/04/03 11:24:30;;;;;;;2.03;1.20;;;10.50;99.90;;;;;;5092371;28;20216;-66
2021/04/03 11:26:57;;;;;;;2.47;1.00;;;10.50;99.90;;;;;;5092192;28;20243;-66
2021/04/03 11:29:44;;;;;;;1.93;1.10;;;10.50;99.90;;;;;;5092204;28;20245;-65
2021/04/03 11:32:12;;;;;;;1.63;1.33;;;10.70;99.90;;;;;;5092582;28;20200;-67
2021/04/03 11:34:38;;;;;;;2.53;1.60;;;10.80;99.90;;;;;;5092708;28;20202;-67
2021/04/03 11:37:06;;;;;;;2.17;1.20;;;11.00;99.90;;;;;;5092597;28;20295;-65
2021/04/03 11:39:32;;;;;;;5.43;1.50;;;10.90;99.90;;;;;;5080834;28;20236;-66
2021/04/03 11:41:59;;;;;;;2.50;1.33;;;10.80;99.90;;;;;;5072382;28;20276;-66
2021/04/03 11:44:27;;;;;;;2.57;1.40;;;10.70;99.90;;;;;;5072158;28;20315;-65
2021/04/03 11:46:56;;;;;;;2.67;1.63;;;10.90;99.90;;;;;;5072198;28;20277;-65
2021/04/03 11:49:24;;;;;;;2.00;1.30;;;11.00;99.90;;;;;;5072360;28;20284;-67
2021/04/03 11:51:51;;;;;;;2.07;1.17;;;10.80;99.90;;;;;;5078085;28;20196;-65
2021/04/03 11:54:18;;;;;;;1.60;1.20;;;10.70;99.90;;;;;;5085819;28;20299;-65
2021/04/03 11:56:45;;;;;;;2.03;1.27;;;10.80;99.90;;;;;;5080865;28;20296;-65
2021/04/03 11:59:12;;;;;;;3.43;1.23;;;11.00;99.90;;;;;;5083425;28;20637;-64
2021/04/03 12:01:39;;;;;;;2.30;1.40;;;10.90;99.90;;;;;;5076721;28;20742;-64
2021/04/03 12:04:07;;;;;;;1.67;1.10;;;10.50;99.90;;;;;;5083850;28;20687;-65
2021/04/03 12:06:33;;;;;;;2.23;1.10;;;10.50;99.90;;;;;;5076757;28;20205;-64
2021/04/03 12:09:00;;;;;;;3.13;1.00;;;10.40;99.90;;;;;;5074160;28;20205;-64
2021/04/03 12:11:27;;;;;;;1.70;1.20;;;10.30;99.90;;;;;;5077011;28;20215;-65
2021/04/03 12:13:54;;;;;;;2.87;1.50;;;10.10;99.90;;;;;;5085383;28;20300;-64
2021/04/03 12:16:21;;;;;;;2.53;1.60;;;10.20;99.90;;;;;;5075673;28;20288;-63
2021/04/03 12:18:50;;;;;;;3.13;1.37;;;10.50;99.90;;;;;;5076091;28;20219;-63
2021/04/03 12:21:18;;;;;;;2.50;1.40;;;10.50;99.90;;;;;;5076580;28;20668;-64
2021/04/03 12:23:45;;;;;;;2.57;1.43;;;10.40;99.90;;;;;;5095879;28;20308;-65
2021/04/03 12:26:12;;;;;;;2.90;1.43;;;10.40;99.90;;;;;;5095826;28;20234;-64
2021/04/03 12:28:39;;;;;;;1.80;1.10;;;10.40;99.90;;;;;;5095957;28;20222;-64
2021/04/03 12:31:06;;;;;;;2.33;1.50;;;10.60;99.90;;;;;;5095402;28;20197;-66
2021/04/03 12:33:35;;;;;;;4.00;1.80;;;10.50;99.90;;;;;;5095897;28;20207;-64
2021/04/03 12:36:03;;;;;;;2.53;1.33;;;10.20;99.90;;;;;;5095830;28;20683;-62
2021/04/03 12:38:30;;;;;;;1.93;1.10;;;10.10;99.90;;;;;;5094832;28;20200;-64
2021/04/03 12:40:58;;;;;;;2.20;1.20;;;10.20;99.90;;;;;;5095816;28;20207;-64
2021/04/03 12:43:25;;;;;;;2.23;1.60;;;10.20;99.90;;;;;;5095821;28;20255;-64
2021/04/03 12:45:52;;;;;;;1.33;1.20;;;10.20;99.90;;;;;;5095157;28;20204;-63
2021/04/03 12:48:19;;;;;;;2.97;1.40;;;10.00;99.90;;;;;;5095175;28;20231;-64
2021/04/03 12:50:48;;;;;;;2.50;1.60;;;9.80;99.90;;;;;;5089170;28;20197;-64
2021/04/03 12:53:15;;;;;;;4.80;1.20;;;9.80;99.90;;;;;;5074878;28;20291;-64
2021/04/03 12:55:43;;;;;;;3.57;1.20;;;9.90;99.90;;;;;;5075271;28;20201;-64
2021/04/03 12:58:10;;;;;;;2.53;1.33;;;10.10;99.90;;;;;;5075267;28;20284;-65